DKH1246 ZUCK-ZSSS
Flight info
| Callsign | DKH1246 |
|---|---|
| Flight time | N/A |
| Altitude | 2910 |
| Route | OLNER B213 WHA R343 SASAN |
| Aircraft | B738/M-SDE2E3FGHIRWXY/LB1 |
Departure
| Time | N/A |
|---|---|
| Airport | Chongqing Jiangbei International Airport (ZUCK) |
Arrival
| Time | 2026-05-04 14:15 |
|---|---|
| Airport | Shanghai Hongqiao International Airport (ZSSS) |
| Time | Latitude | Longitude | Altitude | Speed | Heading |
|---|---|---|---|---|---|
| 2026-05-04 13:20 | 31.28315 | 114.55721 | 29123 ft | 518 kts | 77° |
| 2026-05-04 13:20 | 31.29018 | 114.59835 | 29123 ft | 515 kts | 77° |
| 2026-05-04 13:21 | 31.30422 | 114.68048 | 29124 ft | 515 kts | 77° |
| 2026-05-04 13:21 | 31.31851 | 114.76427 | 29123 ft | 515 kts | 77° |
| 2026-05-04 13:22 | 31.33256 | 114.84681 | 29123 ft | 518 kts | 77° |
| 2026-05-04 13:22 | 31.34657 | 114.92935 | 29124 ft | 516 kts | 77° |
| 2026-05-04 13:23 | 31.36053 | 115.01180 | 29124 ft | 518 kts | 77° |
| 2026-05-04 13:23 | 31.37443 | 115.09434 | 29124 ft | 517 kts | 77° |
| 2026-05-04 13:24 | 31.38826 | 115.17674 | 29124 ft | 517 kts | 77° |
| 2026-05-04 13:24 | 31.40209 | 115.25945 | 29123 ft | 517 kts | 77° |
| 2026-05-04 13:25 | 31.42278 | 115.38377 | 29124 ft | 520 kts | 77° |
| 2026-05-04 13:25 | 31.43650 | 115.46680 | 29124 ft | 520 kts | 77° |
| 2026-05-04 13:26 | 31.45022 | 115.54984 | 29124 ft | 519 kts | 77° |
| 2026-05-04 13:26 | 31.46387 | 115.63304 | 29123 ft | 520 kts | 77° |
| 2026-05-04 13:27 | 31.47744 | 115.71605 | 29122 ft | 520 kts | 77° |
| 2026-05-04 13:27 | 31.49100 | 115.79927 | 29123 ft | 522 kts | 78° |
| 2026-05-04 13:28 | 31.50461 | 115.88298 | 29124 ft | 523 kts | 78° |
| 2026-05-04 13:28 | 31.51813 | 115.96662 | 29123 ft | 523 kts | 78° |
| 2026-05-04 13:29 | 31.53160 | 116.05031 | 29124 ft | 522 kts | 78° |
| 2026-05-04 13:29 | 31.54508 | 116.13413 | 29123 ft | 523 kts | 78° |
| 2026-05-04 13:30 | 31.55847 | 116.21774 | 29123 ft | 522 kts | 78° |
| 2026-05-04 13:30 | 31.57185 | 116.30155 | 29123 ft | 525 kts | 78° |
| 2026-05-04 13:31 | 31.58523 | 116.38575 | 29124 ft | 525 kts | 78° |
| 2026-05-04 13:31 | 31.59856 | 116.46991 | 29123 ft | 525 kts | 78° |
| 2026-05-04 13:32 | 31.61186 | 116.55391 | 29123 ft | 524 kts | 78° |
| 2026-05-04 13:32 | 31.62517 | 116.63792 | 29123 ft | 524 kts | 78° |
| 2026-05-04 13:33 | 31.63879 | 116.72184 | 29123 ft | 524 kts | 78° |
| 2026-05-04 13:33 | 31.65206 | 116.80600 | 29123 ft | 525 kts | 78° |
| 2026-05-04 13:34 | 31.66543 | 116.89059 | 29124 ft | 530 kts | 78° |
| 2026-05-04 13:34 | 31.67945 | 116.97520 | 29123 ft | 528 kts | 77° |
| 2026-05-04 13:35 | 31.71191 | 117.09840 | 29123 ft | 527 kts | 67° |
| 2026-05-04 13:36 | 31.73731 | 117.17924 | 29123 ft | 527 kts | 68° |
| 2026-05-04 13:36 | 31.76138 | 117.26046 | 29122 ft | 528 kts | 73° |
| 2026-05-04 13:37 | 31.77281 | 117.34538 | 29123 ft | 524 kts | 87° |
| 2026-05-04 13:37 | 31.76914 | 117.43051 | 29124 ft | 523 kts | 97° |
| 2026-05-04 13:38 | 31.76138 | 117.51538 | 29124 ft | 523 kts | 97° |
| 2026-05-04 13:38 | 31.75464 | 117.59960 | 29123 ft | 514 kts | 96° |
| 2026-05-04 13:39 | 31.74833 | 117.68382 | 29124 ft | 520 kts | 96° |
| 2026-05-04 13:39 | 31.74247 | 117.76940 | 29124 ft | 531 kts | 96° |
| 2026-05-04 13:40 | 31.73640 | 117.85663 | 29124 ft | 541 kts | 97° |
| 2026-05-04 13:40 | 31.72993 | 117.94458 | 29130 ft | 542 kts | 98° |
| 2026-05-04 13:41 | 31.72337 | 118.03278 | 29133 ft | 542 kts | 98° |
| 2026-05-04 13:41 | 31.71688 | 118.12104 | 29135 ft | 542 kts | 97° |
| 2026-05-04 13:42 | 31.70761 | 118.25327 | 29141 ft | 542 kts | 97° |
| 2026-05-04 13:42 | 31.70134 | 118.34113 | 29142 ft | 539 kts | 97° |
| 2026-05-04 13:43 | 31.69500 | 118.42863 | 29147 ft | 538 kts | 97° |
| 2026-05-04 13:43 | 31.68868 | 118.51621 | 29149 ft | 539 kts | 97° |
| 2026-05-04 13:44 | 31.68255 | 118.60393 | 29149 ft | 539 kts | 97° |
| 2026-05-04 13:44 | 31.67644 | 118.69164 | 29152 ft | 538 kts | 97° |
| 2026-05-04 13:45 | 31.67001 | 118.77912 | 29152 ft | 539 kts | 98° |
| 2026-05-04 13:45 | 31.66339 | 118.86719 | 29153 ft | 544 kts | 98° |
| 2026-05-04 13:46 | 31.66007 | 118.91096 | 28961 ft | 533 kts | 98° |
| 2026-05-04 13:46 | 31.65678 | 118.95396 | 28710 ft | 521 kts | 98° |
| 2026-05-04 13:46 | 31.65363 | 118.99567 | 28459 ft | 510 kts | 98° |
| 2026-05-04 13:46 | 31.65055 | 119.03670 | 28207 ft | 499 kts | 98° |
| 2026-05-04 13:47 | 31.64813 | 119.07695 | 27955 ft | 490 kts | 96° |
| 2026-05-04 13:47 | 31.64631 | 119.11654 | 27703 ft | 481 kts | 96° |
| 2026-05-04 13:47 | 31.64452 | 119.15524 | 27514 ft | 470 kts | 95° |
| 2026-05-04 13:47 | 31.64288 | 119.19301 | 27433 ft | 458 kts | 95° |
| 2026-05-04 13:48 | 31.64124 | 119.22981 | 27358 ft | 446 kts | 96° |
| 2026-05-04 13:48 | 31.63961 | 119.26570 | 27190 ft | 437 kts | 96° |
| 2026-05-04 13:48 | 31.63798 | 119.30112 | 26804 ft | 435 kts | 96° |
| 2026-05-04 13:48 | 31.63634 | 119.33642 | 26444 ft | 432 kts | 96° |
| 2026-05-04 13:49 | 31.63472 | 119.37144 | 26132 ft | 428 kts | 96° |
| 2026-05-04 13:49 | 31.63316 | 119.40613 | 25795 ft | 425 kts | 96° |
| 2026-05-04 13:49 | 31.63145 | 119.44060 | 25536 ft | 419 kts | 94° |
| 2026-05-04 13:49 | 31.63019 | 119.47480 | 25027 ft | 420 kts | 94° |
| 2026-05-04 13:50 | 31.62854 | 119.50863 | 24837 ft | 412 kts | 96° |
| 2026-05-04 13:50 | 31.62681 | 119.54204 | 24543 ft | 408 kts | 96° |
| 2026-05-04 13:50 | 31.62514 | 119.57502 | 24214 ft | 405 kts | 96° |
| 2026-05-04 13:50 | 31.62350 | 119.60791 | 23888 ft | 401 kts | 95° |
| 2026-05-04 13:51 | 31.62245 | 119.62916 | 23663 ft | 400 kts | 95° |
| 2026-05-04 13:51 | 31.62079 | 119.66273 | 23284 ft | 398 kts | 95° |
| 2026-05-04 13:51 | 31.61928 | 119.69489 | 22935 ft | 395 kts | 95° |
| 2026-05-04 13:51 | 31.61730 | 119.73757 | 22486 ft | 391 kts | 94° |
| 2026-05-04 13:52 | 31.61483 | 119.79036 | 21858 ft | 389 kts | 94° |
| 2026-05-04 13:52 | 31.61333 | 119.82213 | 21498 ft | 388 kts | 94° |
| 2026-05-04 13:52 | 31.61185 | 119.85351 | 21192 ft | 384 kts | 94° |
| 2026-05-04 13:53 | 31.61036 | 119.88467 | 20871 ft | 381 kts | 94° |
| 2026-05-04 13:53 | 31.60888 | 119.91568 | 20588 ft | 378 kts | 93° |
| 2026-05-04 13:53 | 31.60746 | 119.94627 | 20339 ft | 376 kts | 93° |
| 2026-05-04 13:54 | 31.60484 | 120.00693 | 19838 ft | 369 kts | 93° |
| 2026-05-04 13:54 | 31.60346 | 120.03696 | 19550 ft | 368 kts | 93° |
| 2026-05-04 13:54 | 31.60062 | 120.09619 | 19059 ft | 360 kts | 93° |
| 2026-05-04 13:55 | 31.59918 | 120.12545 | 18716 ft | 359 kts | 92° |
| 2026-05-04 13:55 | 31.59628 | 120.18380 | 18013 ft | 357 kts | 92° |
| 2026-05-04 13:55 | 31.59482 | 120.21285 | 17543 ft | 360 kts | 92° |
| 2026-05-04 13:56 | 31.59331 | 120.24272 | 16802 ft | 373 kts | 92° |
| 2026-05-04 13:56 | 31.59176 | 120.27355 | 16054 ft | 384 kts | 92° |
| 2026-05-04 13:56 | 31.58465 | 120.33689 | 14551 ft | 398 kts | 102° |
| 2026-05-04 13:57 | 31.57705 | 120.36791 | 13800 ft | 394 kts | 108° |
| 2026-05-04 13:57 | 31.56792 | 120.39809 | 13049 ft | 391 kts | 110° |
| 2026-05-04 13:58 | 31.54016 | 120.48657 | 10799 ft | 381 kts | 108° |
| 2026-05-04 13:58 | 31.52291 | 120.54302 | 10214 ft | 350 kts | 107° |
| 2026-05-04 13:58 | 31.51496 | 120.56923 | 10082 ft | 333 kts | 107° |
| 2026-05-04 13:59 | 31.50739 | 120.59432 | 9952 ft | 321 kts | 107° |
| 2026-05-04 13:59 | 31.50020 | 120.61869 | 9857 ft | 311 kts | 107° |
| 2026-05-04 13:59 | 31.48609 | 120.66615 | 9732 ft | 309 kts | 107° |
| 2026-05-04 14:00 | 31.47895 | 120.69000 | 9722 ft | 311 kts | 107° |
| 2026-05-04 14:00 | 31.46449 | 120.73806 | 9718 ft | 311 kts | 107° |
| 2026-05-04 14:00 | 31.45728 | 120.76199 | 9718 ft | 311 kts | 107° |
| 2026-05-04 14:01 | 31.45007 | 120.78584 | 9717 ft | 311 kts | 107° |
| 2026-05-04 14:01 | 31.44286 | 120.80968 | 9734 ft | 310 kts | 107° |
| 2026-05-04 14:01 | 31.42846 | 120.85726 | 9717 ft | 311 kts | 107° |
| 2026-05-04 14:02 | 31.42118 | 120.88129 | 9283 ft | 316 kts | 108° |
| 2026-05-04 14:02 | 31.41379 | 120.90569 | 8783 ft | 317 kts | 108° |
| 2026-05-04 14:02 | 31.40645 | 120.92990 | 8284 ft | 316 kts | 108° |
| 2026-05-04 14:02 | 31.39916 | 120.95400 | 7785 ft | 314 kts | 109° |
| 2026-05-04 14:03 | 31.39189 | 120.97801 | 7284 ft | 312 kts | 109° |
| 2026-05-04 14:03 | 31.38462 | 121.00193 | 6813 ft | 309 kts | 109° |
| 2026-05-04 14:03 | 31.37753 | 121.02522 | 6438 ft | 302 kts | 109° |
| 2026-05-04 14:03 | 31.37051 | 121.04822 | 6060 ft | 296 kts | 110° |
| 2026-05-04 14:04 | 31.35694 | 121.09270 | 5309 ft | 285 kts | 110° |
| 2026-05-04 14:04 | 31.35032 | 121.11424 | 4989 ft | 278 kts | 110° |
| 2026-05-04 14:04 | 31.34384 | 121.13521 | 4914 ft | 272 kts | 110° |
| 2026-05-04 14:05 | 31.33091 | 121.17682 | 4885 ft | 273 kts | 110° |
| 2026-05-04 14:05 | 31.32411 | 121.19760 | 4881 ft | 276 kts | 117° |
| 2026-05-04 14:05 | 31.31220 | 121.21490 | 4876 ft | 274 kts | 142° |
| 2026-05-04 14:06 | 31.29537 | 121.22475 | 4884 ft | 271 kts | 166° |
| 2026-05-04 14:06 | 31.27683 | 121.22649 | 4906 ft | 269 kts | 184° |
| 2026-05-04 14:06 | 31.25813 | 121.22521 | 4909 ft | 269 kts | 182° |
| 2026-05-04 14:06 | 31.23942 | 121.22535 | 4904 ft | 269 kts | 180° |
| 2026-05-04 14:07 | 31.22065 | 121.22622 | 4682 ft | 271 kts | 178° |
| 2026-05-04 14:07 | 31.20169 | 121.22731 | 4437 ft | 274 kts | 178° |
| 2026-05-04 14:07 | 31.18293 | 121.22835 | 4279 ft | 269 kts | 179° |
| 2026-05-04 14:07 | 31.16439 | 121.22937 | 4028 ft | 265 kts | 178° |
| 2026-05-04 14:08 | 31.14609 | 121.23038 | 3777 ft | 261 kts | 179° |
| 2026-05-04 14:08 | 31.12822 | 121.23136 | 3499 ft | 254 kts | 179° |
| 2026-05-04 14:08 | 31.11067 | 121.23233 | 3122 ft | 250 kts | 179° |
| 2026-05-04 14:08 | 31.09351 | 121.23327 | 2748 ft | 246 kts | 178° |
| 2026-05-04 14:09 | 31.05981 | 121.23512 | 2086 ft | 236 kts | 178° |
| 2026-05-04 14:09 | 31.04379 | 121.23600 | 2011 ft | 226 kts | 178° |
| 2026-05-04 14:10 | 31.01660 | 121.24875 | 1984 ft | 209 kts | 132° |
| 2026-05-04 14:10 | 31.01102 | 121.26373 | 1932 ft | 199 kts | 98° |
| 2026-05-04 14:10 | 31.01107 | 121.27951 | 1988 ft | 191 kts | 86° |
| 2026-05-04 14:10 | 31.01250 | 121.29485 | 2011 ft | 190 kts | 85° |
| 2026-05-04 14:11 | 31.01360 | 121.31028 | 2013 ft | 193 kts | 82° |
| 2026-05-04 14:11 | 31.02714 | 121.33618 | 1988 ft | 190 kts | 31° |
| 2026-05-04 14:11 | 31.03928 | 121.34150 | 2009 ft | 187 kts | 9° |
| 2026-05-04 14:12 | 31.05218 | 121.34302 | 2025 ft | 186 kts | 2° |
| 2026-05-04 14:12 | 31.06512 | 121.34339 | 2015 ft | 185 kts | 357° |
| 2026-05-04 14:12 | 31.09089 | 121.34212 | 1919 ft | 186 kts | 355° |
| 2026-05-04 14:13 | 31.10385 | 121.34141 | 1672 ft | 186 kts | 355° |
| 2026-05-04 14:13 | 31.11647 | 121.34071 | 1420 ft | 180 kts | 355° |
| 2026-05-04 14:13 | 31.12872 | 121.34004 | 1186 ft | 173 kts | 354° |
| 2026-05-04 14:13 | 31.14057 | 121.33939 | 951 ft | 168 kts | 354° |
| 2026-05-04 14:14 | 31.15212 | 121.33875 | 718 ft | 163 kts | 354° |
| 2026-05-04 14:14 | 31.17386 | 121.33756 | 308 ft | 152 kts | 354° |
| 2026-05-04 14:14 | 31.18441 | 121.33700 | 31 ft | 153 kts | 356° |
| 2026-05-04 14:15 | 31.19779 | 121.33631 | 18 ft | 48 kts | 356° |
| 2026-05-04 14:15 | 31.20115 | 121.33677 | 18 ft | 14 kts | 22° |
| 2026-05-04 14:16 | 31.20204 | 121.33731 | 18 ft | 0 kts | 28° |
| 2026-05-04 14:17 | 31.20232 | 121.33748 | 18 ft | 6 kts | 28° |
| 2026-05-04 14:18 | 31.20280 | 121.33776 | 18 ft | 9 kts | 27° |
| 2026-05-04 14:18 | 31.20433 | 121.33846 | 18 ft | 15 kts | 2° |
| 2026-05-04 14:19 | 31.20508 | 121.33973 | 18 ft | 8 kts | 74° |
| 2026-05-04 14:19 | 31.20515 | 121.33982 | 18 ft | 2 kts | 29° |
| 2026-05-04 14:19 | 31.20534 | 121.34003 | 18 ft | 5 kts | 71° |
| 2026-05-04 14:19 | 31.20535 | 121.34023 | 18 ft | 0 kts | 88° |